Time;durP1;ratioP1;P1;durP2;ratioP2;P2;SDS_P1;SDS_P2;PMS_P1;PMS_P2;Temp;Humidity;BMP_temperature;BMP_pressure;BME280_temperature;BME280_humidity;BME280_pressure;Samples;Min_cycle;Max_cycle;Signal;HPM_P1;HPM_P2
2023/12/12 00:01:55;;;;;;;14.63;3.13;;;6.30;28.10;;;;;;5019879;28;20054;-88
2023/12/12 00:04:43;;;;;;;10.32;2.83;;;6.20;25.80;;;;;;4984004;28;20045;-85
2023/12/12 00:07:30;;;;;;;9.35;3.20;;;6.20;50.90;;;;;;5004825;28;20054;-87
2023/12/12 00:10:18;;;;;;;10.50;2.83;;;6.20;55.70;;;;;;4997294;28;20575;-87
2023/12/12 00:13:06;;;;;;;11.55;3.03;;;6.30;80.80;;;;;;5009180;28;20093;-81
2023/12/12 00:15:53;;;;;;;10.32;3.08;;;6.30;75.60;;;;;;4994151;28;20047;-88
2023/12/12 00:18:40;;;;;;;7.10;3.45;;;6.30;77.90;;;;;;5012701;28;20125;-85
2023/12/12 00:21:30;;;;;;;13.38;2.90;;;6.20;87.20;;;;;;5012521;28;20116;-82
2023/12/12 00:24:18;;;;;;;9.57;3.08;;;6.10;91.90;;;;;;4995652;28;20124;-83
2023/12/12 00:27:05;;;;;;;12.52;2.85;;;5.90;94.40;;;;;;5011200;28;20065;-87
2023/12/12 00:29:52;;;;;;;12.27;3.30;;;5.80;99.90;;;;;;5007487;28;20041;-87
2023/12/12 00:32:42;;;;;;;10.57;3.17;;;5.80;99.90;;;;;;5006649;28;20062;-85
2023/12/12 00:35:31;;;;;;;14.88;3.38;;;5.80;99.90;;;;;;5012878;28;20048;-87
2023/12/12 00:38:28;;;;;;;11.35;2.80;;;5.80;99.90;;;;;;5000542;28;20050;-87
2023/12/12 00:41:15;;;;;;;5.93;2.67;;;5.90;99.90;;;;;;5004928;28;20046;-86
2023/12/12 00:44:05;;;;;;;10.30;2.85;;;6.00;99.90;;;;;;4987811;28;20204;-81
2023/12/12 00:46:52;;;;;;;14.35;3.03;;;6.00;99.90;;;;;;5010156;28;20046;-80
2023/12/12 00:49:39;;;;;;;8.60;3.33;;;6.10;99.90;;;;;;4998669;28;20366;-81
2023/12/12 00:52:29;;;;;;;11.93;2.92;;;6.10;99.90;;;;;;5003244;28;20054;-81
2023/12/12 00:55:17;;;;;;;10.48;2.97;;;6.20;99.90;;;;;;4992877;28;20458;-81
2023/12/12 00:58:07;;;;;;;8.07;3.20;;;6.20;99.90;;;;;;5006968;28;20134;-81
2023/12/12 01:00:54;;;;;;;9.68;3.20;;;6.20;99.90;;;;;;5009784;28;20038;-81
2023/12/12 01:03:46;;;;;;;12.95;3.35;;;6.30;99.90;;;;;;4990103;28;20454;-81
2023/12/12 01:06:33;;;;;;;8.40;3.17;;;6.40;99.90;;;;;;5013364;28;20132;-80
2023/12/12 01:09:23;;;;;;;8.80;2.40;;;6.50;99.90;;;;;;5008201;28;20308;-80
2023/12/12 01:12:11;;;;;;;9.48;2.90;;;6.60;99.90;;;;;;4999316;28;20458;-81
2023/12/12 01:14:59;;;;;;;9.35;2.92;;;6.70;99.90;;;;;;5010376;28;20108;-81
2023/12/12 01:17:46;;;;;;;11.68;2.70;;;6.70;99.90;;;;;;5006997;28;20046;-81
2023/12/12 01:20:33;;;;;;;11.57;3.20;;;6.70;99.90;;;;;;5000673;28;21474;-81
2023/12/12 01:23:23;;;;;;;11.27;2.72;;;6.80;99.90;;;;;;5014728;28;20056;-82
2023/12/12 01:26:12;;;;;;;12.32;2.90;;;6.80;99.90;;;;;;4994388;28;20042;-80
2023/12/12 01:29:00;;;;;;;15.05;2.67;;;6.70;92.70;;;;;;5006862;28;20046;-80
2023/12/12 01:31:49;;;;;;;7.07;2.30;;;6.60;86.00;;;;;;5008015;28;20049;-80
2023/12/12 01:34:38;;;;;;;9.98;2.92;;;6.50;97.20;;;;;;5003849;28;20042;-82
2023/12/12 01:37:26;;;;;;;10.45;2.83;;;6.40;99.90;;;;;;5011260;28;20125;-80
2023/12/12 01:40:13;;;;;;;9.48;2.95;;;6.30;99.90;;;;;;5013072;28;20095;-79
2023/12/12 01:43:06;;;;;;;10.88;2.60;;;6.20;99.90;;;;;;5008711;28;20144;-80
2023/12/12 01:45:59;;;;;;;11.80;2.45;;;6.20;99.90;;;;;;5007309;28;20049;-80
2023/12/12 01:48:49;;;;;;;;;;;6.10;99.90;;;;;;4992462;28;20137;-80
2023/12/12 01:51:37;;;;;;;9.32;2.50;;;6.20;99.90;;;;;;5007632;28;19952;-79
2023/12/12 01:54:25;;;;;;;12.00;2.55;;;6.20;99.90;;;;;;4994288;28;20102;-82
2023/12/12 01:57:16;;;;;;;12.02;2.90;;;6.30;99.90;;;;;;5009676;28;20092;-80
2023/12/12 02:00:05;;;;;;;13.27;2.55;;;6.30;99.90;;;;;;4999953;28;20065;-82
2023/12/12 02:02:52;;;;;;;9.55;2.65;;;6.20;99.90;;;;;;5016423;28;20053;-80
2023/12/12 02:05:41;;;;;;;10.73;2.75;;;6.20;99.90;;;;;;5005077;28;20049;-80
2023/12/12 02:08:29;;;;;;;5.32;2.33;;;6.10;99.90;;;;;;5008959;28;20114;-80
2023/12/12 02:11:16;;;;;;;11.90;2.80;;;6.10;99.90;;;;;;4992203;28;20046;-81
2023/12/12 02:14:09;;;;;;;4.60;2.42;;;6.20;99.90;;;;;;5007784;28;20061;-82
2023/12/12 02:16:57;;;;;;;7.20;2.40;;;6.20;99.90;;;;;;5008526;28;20339;-80
2023/12/12 02:19:44;;;;;;;7.43;2.25;;;6.20;99.90;;;;;;5006608;28;20054;-81
2023/12/12 02:22:31;;;;;;;6.75;2.50;;;6.10;99.90;;;;;;5005775;28;20374;-82
2023/12/12 02:25:19;;;;;;;8.88;3.00;;;6.10;99.90;;;;;;5003731;28;20061;-80
2023/12/12 02:28:08;;;;;;;7.47;2.15;;;6.00;99.90;;;;;;5007370;28;20057;-78
2023/12/12 02:30:57;;;;;;;5.60;2.45;;;6.00;99.90;;;;;;4995574;28;20125;-81
2023/12/12 02:33:44;;;;;;;4.57;2.25;;;6.00;99.90;;;;;;4999525;28;20041;-81
2023/12/12 02:36:34;;;;;;;8.60;2.55;;;6.00;99.90;;;;;;5009546;28;20535;-81
2023/12/12 02:39:24;;;;;;;7.93;2.40;;;5.90;99.90;;;;;;5012432;28;20046;-79
2023/12/12 02:42:11;;;;;;;8.68;3.08;;;6.00;97.40;;;;;;5019907;28;20049;-80
2023/12/12 02:44:58;;;;;;;6.82;2.15;;;6.10;84.20;;;;;;4997550;28;20053;-81
2023/12/12 02:47:48;;;;;;;8.13;2.40;;;6.10;53.90;;;;;;5010125;28;20351;-81
2023/12/12 02:50:35;;;;;;;7.63;2.47;;;6.10;28.60;;;;;;5005369;28;20042;-81
2023/12/12 02:53:22;;;;;;;9.00;2.17;;;6.20;11.40;;;;;;5001991;28;20398;-82
2023/12/12 02:56:09;;;;;;;7.72;2.08;;;6.20;1.00;;;;;;4990250;28;20069;-81
2023/12/12 02:58:59;;;;;;;7.15;1.90;;;6.20;1.00;;;;;;5002507;28;20041;-80
2023/12/12 03:01:49;;;;;;;9.38;2.33;;;6.30;1.00;;;;;;5019485;28;20038;-80
2023/12/12 03:04:43;;;;;;;7.53;2.85;;;6.30;1.00;;;;;;5018175;28;20045;-81
2023/12/12 03:07:30;;;;;;;9.82;2.15;;;6.40;1.00;;;;;;5015047;28;20038;-81
2023/12/12 03:10:21;;;;;;;12.38;2.50;;;6.40;1.00;;;;;;5027937;28;20042;-80
2023/12/12 03:13:08;;;;;;;7.05;2.25;;;6.40;99.90;;;;;;5009203;28;20042;-80
2023/12/12 03:15:55;;;;;;;4.18;2.00;;;6.30;99.90;;;;;;5029704;28;20124;-79
2023/12/12 03:18:43;;;;;;;4.93;2.05;;;6.30;99.90;;;;;;5017301;28;20715;-82
2023/12/12 03:21:30;;;;;;;8.20;2.47;;;6.30;99.90;;;;;;4999226;28;20181;-80
2023/12/12 03:24:20;;;;;;;6.78;1.98;;;6.30;99.90;;;;;;5004920;28;20054;-79
2023/12/12 03:27:08;;;;;;;7.07;2.28;;;6.30;99.90;;;;;;5015579;28;20402;-81
2023/12/12 03:29:58;;;;;;;8.30;1.80;;;6.20;99.90;;;;;;5010791;28;20046;-82
2023/12/12 03:32:50;;;;;;;8.35;3.05;;;6.30;99.90;;;;;;5012905;28;20056;-81
2023/12/12 03:35:37;;;;;;;9.85;5.78;;;6.20;99.90;;;;;;4993530;28;20132;-79
2023/12/12 03:38:24;;;;;;;12.93;7.35;;;6.20;99.90;;;;;;5013582;28;20042;-80
2023/12/12 03:41:12;;;;;;;6.70;3.25;;;6.20;99.90;;;;;;5007764;28;20065;-79
2023/12/12 03:44:00;;;;;;;9.10;2.47;;;6.20;99.90;;;;;;5004437;28;20436;-81
2023/12/12 03:46:47;;;;;;;5.55;1.92;;;6.10;99.90;;;;;;5002999;28;20046;-81
2023/12/12 03:49:34;;;;;;;4.60;2.10;;;6.10;99.90;;;;;;5010350;28;20046;-81
2023/12/12 03:52:22;;;;;;;3.10;1.70;;;6.10;99.90;;;;;;4995434;28;20088;-81
2023/12/12 03:55:11;;;;;;;9.18;2.20;;;6.10;99.90;;;;;;5009659;28;20061;-80
2023/12/12 03:57:58;;;;;;;7.40;2.15;;;6.10;99.90;;;;;;5007868;28;20192;-79
2023/12/12 04:00:48;;;;;;;10.23;1.90;;;6.10;99.90;;;;;;4995891;28;20168;-80
2023/12/12 04:03:39;;;;;;;6.60;1.88;;;6.10;1.00;;;;;;5011454;28;20722;-80
2023/12/12 04:06:26;;;;;;;5.00;1.83;;;6.10;1.00;;;;;;4990217;28;20042;-80
2023/12/12 04:09:16;;;;;;;6.05;1.98;;;6.10;1.00;;;;;;5016224;28;20041;-80
2023/12/12 04:12:03;;;;;;;7.75;1.90;;;6.10;1.00;;;;;;5013411;28;20060;-79
2023/12/12 04:14:51;;;;;;;3.53;2.08;;;6.00;1.00;;;;;;5015876;28;20061;-81
2023/12/12 04:17:38;;;;;;;6.13;1.83;;;6.00;1.00;;;;;;5014554;28;20061;-79
2023/12/12 04:20:25;;;;;;;7.00;2.25;;;5.90;1.00;;;;;;5011658;28;20135;-80
2023/12/12 04:23:12;;;;;;;5.22;2.05;;;5.90;1.00;;;;;;5010243;28;20046;-80
2023/12/12 04:25:59;;;;;;;6.80;2.35;;;6.00;1.00;;;;;;5007392;28;20054;-80
2023/12/12 04:28:47;;;;;;;8.05;2.00;;;5.90;1.00;;;;;;4986814;28;20403;-81
2023/12/12 04:31:35;;;;;;;8.00;2.67;;;5.90;1.00;;;;;;5012936;28;20038;-80
2023/12/12 04:34:23;;;;;;;6.57;2.30;;;5.80;1.00;;;;;;5008512;28;20382;-81
2023/12/12 04:37:13;;;;;;;8.13;3.00;;;5.80;1.00;;;;;;5004465;28;20049;-82
2023/12/12 04:40:02;;;;;;;6.95;2.40;;;5.80;1.00;;;;;;5005904;28;20419;-81
2023/12/12 04:42:49;;;;;;;6.68;2.30;;;5.80;1.00;;;;;;5009208;28;20095;-80
2023/12/12 04:45:39;;;;;;;3.33;2.10;;;5.70;1.00;;;;;;4995578;28;20042;-81
2023/12/12 04:48:26;;;;;;;5.43;2.47;;;5.80;1.00;;;;;;5012977;28;20060;-81
2023/12/12 04:51:17;;;;;;;9.63;2.40;;;5.80;1.00;;;;;;5013840;28;20131;-81
2023/12/12 04:54:04;;;;;;;13.15;3.40;;;5.80;1.00;;;;;;5002594;28;20046;-80
2023/12/12 04:56:52;;;;;;;10.13;3.13;;;5.80;1.00;;;;;;4997337;28;20045;-79
2023/12/12 04:59:40;;;;;;;11.18;3.92;;;5.70;15.10;;;;;;5003530;28;20057;-80
2023/12/12 05:02:27;;;;;;;7.15;2.92;;;5.70;41.40;;;;;;5001771;28;20068;-80
2023/12/12 05:05:14;;;;;;;9.68;3.10;;;5.70;42.10;;;;;;5011726;28;20097;-80
2023/12/12 05:08:02;;;;;;;8.40;3.47;;;5.60;40.00;;;;;;4997104;28;20152;-80
2023/12/12 05:10:49;;;;;;;9.20;3.10;;;5.50;46.60;;;;;;5007641;28;20200;-81
2023/12/12 05:13:37;;;;;;;6.22;2.90;;;5.40;62.90;;;;;;4998734;28;20054;-79
2023/12/12 05:16:24;;;;;;;6.78;3.22;;;5.30;94.80;;;;;;5012723;28;20495;-79
2023/12/12 05:19:18;;;;;;;9.52;3.80;;;5.30;99.90;;;;;;5006568;28;20462;-81
2023/12/12 05:22:06;;;;;;;8.60;3.22;;;5.30;99.90;;;;;;5010554;28;20046;-80
2023/12/12 05:24:53;;;;;;;6.45;3.28;;;5.40;99.90;;;;;;5010617;28;20477;-81
2023/12/12 05:27:43;;;;;;;8.82;3.50;;;5.50;99.90;;;;;;5011135;28;20041;-84
2023/12/12 05:30:32;;;;;;;8.02;3.42;;;5.50;99.90;;;;;;5006917;28;20153;-81
2023/12/12 05:33:22;;;;;;;8.02;3.08;;;5.50;99.90;;;;;;4994281;28;20045;-79
2023/12/12 05:36:10;;;;;;;8.20;2.92;;;5.50;99.90;;;;;;5006242;28;20049;-82
2023/12/12 05:38:57;;;;;;;6.28;3.03;;;5.50;99.90;;;;;;5006531;28;20050;-79
2023/12/12 05:41:48;;;;;;;5.45;2.63;;;5.50;99.90;;;;;;5008486;28;20077;-83
2023/12/12 05:44:35;;;;;;;6.80;2.65;;;5.50;99.90;;;;;;5008346;28;20034;-79
2023/12/12 05:47:22;;;;;;;5.22;2.92;;;5.50;99.90;;;;;;5016227;28;20117;-81
2023/12/12 05:50:11;;;;;;;6.63;2.80;;;5.60;99.90;;;;;;5011148;28;20076;-82
2023/12/12 05:53:01;;;;;;;7.07;3.08;;;5.70;99.90;;;;;;4994275;28;20072;-79
2023/12/12 05:55:48;;;;;;;8.85;3.00;;;5.70;99.90;;;;;;5013159;28;20042;-81
2023/12/12 05:58:35;;;;;;;5.55;2.67;;;5.70;99.90;;;;;;5011459;28;20041;-81
2023/12/12 06:01:23;;;;;;;8.57;3.17;;;5.80;99.90;;;;;;5009367;28;20042;-81
2023/12/12 06:04:12;;;;;;;4.65;2.45;;;5.80;99.90;;;;;;5005529;28;20410;-79
2023/12/12 06:07:05;;;;;;;4.40;2.30;;;5.80;99.90;;;;;;5005024;28;20486;-82
2023/12/12 06:09:53;;;;;;;4.07;2.53;;;5.80;99.90;;;;;;5004304;28;20047;-79
2023/12/12 06:12:41;;;;;;;6.80;3.00;;;5.90;99.90;;;;;;5010364;28;20053;-79
2023/12/12 06:15:28;;;;;;;6.93;3.00;;;5.90;99.90;;;;;;4995319;28;20072;-80
2023/12/12 06:18:15;;;;;;;7.18;2.90;;;5.90;99.90;;;;;;5014135;28;20047;-80
2023/12/12 06:21:05;;;;;;;5.00;3.03;;;6.00;99.90;;;;;;5012340;23;20479;-79
2023/12/12 06:23:52;;;;;;;6.00;3.20;;;6.00;99.90;;;;;;4987363;28;20051;-80
2023/12/12 06:26:42;;;;;;;6.85;2.50;;;6.00;99.90;;;;;;4995465;28;20217;-81
2023/12/12 06:29:29;;;;;;;3.47;2.67;;;6.00;99.90;;;;;;4990853;28;20133;-80
2023/12/12 06:32:22;;;;;;;7.03;3.45;;;6.00;99.90;;;;;;4988902;28;20443;-80
2023/12/12 06:35:11;;;;;;;5.18;2.90;;;6.00;99.90;;;;;;4989702;28;20050;-80
2023/12/12 06:38:03;;;;;;;6.82;3.10;;;6.00;99.90;;;;;;4971087;28;20065;-79
2023/12/12 06:40:54;;;;;;;7.55;3.22;;;6.00;99.90;;;;;;4973379;28;20057;-80
2023/12/12 06:43:44;;;;;;;9.75;4.70;;;6.00;99.90;;;;;;4978337;28;20046;-80
2023/12/12 06:46:32;;;;;;;10.57;5.07;;;5.90;99.90;;;;;;4994736;28;20050;-80
2023/12/12 06:49:19;;;;;;;11.23;5.93;;;5.80;99.90;;;;;;4979231;28;20747;-79
2023/12/12 06:52:07;;;;;;;8.43;4.43;;;5.70;99.90;;;;;;4992746;28;20046;-80
2023/12/12 06:54:54;;;;;;;10.07;4.32;;;5.70;99.90;;;;;;4986504;28;20125;-80
2023/12/12 06:57:41;;;;;;;7.53;4.25;;;5.70;99.90;;;;;;4995622;28;20034;-79
2023/12/12 07:00:28;;;;;;;7.10;3.92;;;5.70;99.90;;;;;;4990726;28;20050;-78
2023/12/12 07:03:16;;;;;;;8.82;3.15;;;5.80;99.90;;;;;;4990434;28;20046;-81
2023/12/12 07:06:04;;;;;;;9.20;3.83;;;5.80;99.90;;;;;;4984353;28;20042;-80
2023/12/12 07:08:52;;;;;;;8.38;4.40;;;6.00;99.90;;;;;;4986326;28;20320;-79
2023/12/12 07:11:44;;;;;;;9.00;4.50;;;6.00;99.90;;;;;;4974929;28;20050;-81
2023/12/12 07:14:31;;;;;;;9.00;3.55;;;5.90;99.90;;;;;;4988200;28;20057;-81
2023/12/12 07:17:18;;;;;;;14.80;3.90;;;5.90;99.90;;;;;;4986126;28;20049;-82
2023/12/12 07:20:11;;;;;;;8.57;4.15;;;6.00;99.90;;;;;;4983566;28;20473;-82
2023/12/12 07:22:59;;;;;;;8.63;4.18;;;6.00;99.90;;;;;;4987728;28;20470;-81
2023/12/12 07:25:49;;;;;;;11.95;4.40;;;6.10;99.90;;;;;;4992835;28;20057;-79
2023/12/12 07:28:37;;;;;;;10.98;5.35;;;6.10;99.90;;;;;;4982243;28;20070;-80
2023/12/12 07:31:24;;;;;;;15.32;5.32;;;6.20;99.90;;;;;;4988374;28;20048;-79
2023/12/12 07:34:12;;;;;;;10.90;5.10;;;6.30;99.90;;;;;;4981259;28;20058;-78
2023/12/12 07:37:00;;;;;;;9.75;5.25;;;6.40;99.90;;;;;;4990727;28;20054;-81
2023/12/12 07:39:47;;;;;;;10.80;4.72;;;6.50;99.90;;;;;;4996973;28;20057;-82
2023/12/12 07:42:34;;;;;;;7.85;5.05;;;6.40;99.90;;;;;;4978075;28;20555;-81
2023/12/12 07:45:24;;;;;;;13.10;5.57;;;6.50;99.90;;;;;;4990549;28;20473;-80
2023/12/12 07:48:11;;;;;;;12.07;6.28;;;6.40;99.90;;;;;;4994853;28;20053;-80
2023/12/12 07:50:59;;;;;;;18.95;7.50;;;6.40;99.90;;;;;;4997498;28;20076;-80
2023/12/12 07:53:51;;;;;;;14.45;7.13;;;6.30;99.90;;;;;;4992627;28;20042;-80
2023/12/12 07:56:39;;;;;;;10.27;5.93;;;6.20;99.90;;;;;;4991797;28;20054;-81
2023/12/12 07:59:26;;;;;;;15.75;6.97;;;6.10;99.90;;;;;;4989419;28;20073;-81
2023/12/12 08:02:13;;;;;;;11.70;6.30;;;6.10;99.90;;;;;;4991221;28;20061;-80
2023/12/12 08:05:03;;;;;;;11.77;6.05;;;6.10;99.90;;;;;;4985812;28;20428;-80
2023/12/12 08:07:50;;;;;;;13.90;6.25;;;6.10;99.90;;;;;;4991203;28;20042;-80
2023/12/12 08:10:38;;;;;;;15.65;6.15;;;6.10;99.90;;;;;;4985960;28;20053;-81
2023/12/12 08:13:25;;;;;;;43.10;8.57;;;6.20;99.90;;;;;;4976801;28;20046;-81
2023/12/12 08:16:13;;;;;;;26.08;7.07;;;6.30;99.90;;;;;;4980440;28;20050;-82
2023/12/12 08:19:00;;;;;;;17.08;5.35;;;6.30;99.90;;;;;;4989278;28;20105;-78
2023/12/12 08:21:48;;;;;;;11.25;4.70;;;6.20;99.90;;;;;;4990325;28;20038;-81
2023/12/12 08:24:35;;;;;;;7.00;3.83;;;6.20;99.90;;;;;;4993456;28;20035;-80
2023/12/12 08:27:23;;;;;;;6.53;3.83;;;6.20;99.90;;;;;;4987457;28;20054;-81
2023/12/12 08:30:10;;;;;;;7.25;3.42;;;6.10;99.90;;;;;;4990323;28;20054;-82
2023/12/12 08:33:00;;;;;;;9.38;4.63;;;6.20;99.90;;;;;;4976046;28;20055;-81
2023/12/12 08:35:48;;;;;;;9.95;3.90;;;6.10;99.90;;;;;;4990800;28;20050;-80
2023/12/12 08:38:36;;;;;;;10.52;5.05;;;6.00;99.90;;;;;;4981546;28;20053;-82
2023/12/12 08:41:31;;;;;;;17.98;5.70;;;6.00;99.90;;;;;;4993722;28;20466;-81
2023/12/12 08:44:18;;;;;;;13.95;5.32;;;6.10;99.90;;;;;;4975868;28;20435;-79
2023/12/12 08:47:08;;;;;;;9.77;3.53;;;6.20;99.90;;;;;;4986114;28;20042;-80
2023/12/12 08:49:55;;;;;;;6.35;2.70;;;6.40;99.90;;;;;;4992028;28;20058;-80
2023/12/12 08:52:43;;;;;;;7.63;2.97;;;6.60;99.90;;;;;;4988844;28;20050;-81
2023/12/12 08:55:31;;;;;;;6.78;2.42;;;6.70;99.90;;;;;;4983407;28;20053;-80
2023/12/12 08:58:18;;;;;;;6.80;2.60;;;6.80;99.90;;;;;;4993077;28;20140;-81
2023/12/12 09:01:06;;;;;;;8.25;3.13;;;6.90;96.90;;;;;;4979345;28;20129;-81
2023/12/12 09:03:56;;;;;;;8.95;4.13;;;6.90;75.30;;;;;;4987623;28;20051;-80
2023/12/12 09:06:47;;;;;;;10.70;4.57;;;7.00;55.40;;;;;;4990214;28;20050;-79
2023/12/12 09:09:34;;;;;;;8.38;5.00;;;7.00;38.00;;;;;;4991582;28;20050;-80
2023/12/12 09:12:22;;;;;;;7.95;4.57;;;7.00;13.70;;;;;;4990437;28;20042;-78
2023/12/12 09:15:09;;;;;;;13.57;5.55;;;7.00;5.80;;;;;;4975436;28;20167;-81
2023/12/12 09:17:57;;;;;;;10.05;5.13;;;7.10;1.00;;;;;;4981219;28;20054;-81
2023/12/12 09:21:07;;;;;;;7.93;4.95;;;7.00;1.00;;;;;;4991727;28;20046;-84
2023/12/12 09:23:57;;;;;;;12.38;4.57;;;7.00;1.00;;;;;;4994026;28;20104;-86
2023/12/12 09:26:49;;;;;;;9.45;5.35;;;7.00;1.00;;;;;;4982765;28;20390;-86
2023/12/12 09:29:37;;;;;;;12.20;4.55;;;6.90;6.30;;;;;;4993581;28;20045;-86
2023/12/12 09:32:29;;;;;;;10.15;7.32;;;6.80;25.80;;;;;;4992402;28;20480;-83
2023/12/12 09:35:19;;;;;;;20.30;10.75;;;6.70;99.90;;;;;;4988840;28;20057;-85
2023/12/12 09:38:06;;;;;;;16.35;10.75;;;6.60;99.90;;;;;;4992585;28;20189;-86
2023/12/12 09:40:53;;;;;;;19.17;10.68;;;6.50;99.90;;;;;;4974629;28;20054;-84
2023/12/12 09:43:41;;;;;;;16.38;9.82;;;6.30;99.90;;;;;;4993522;28;20125;-85
2023/12/12 09:46:32;;;;;;;15.05;8.55;;;6.20;99.90;;;;;;4988291;28;20121;-84
2023/12/12 09:49:21;;;;;;;22.02;11.20;;;6.10;99.90;;;;;;4978599;28;20434;-83
2023/12/12 09:52:10;;;;;;;23.17;11.52;;;6.00;99.90;;;;;;4989547;28;20489;-83
2023/12/12 09:55:02;;;;;;;15.55;10.82;;;6.00;99.90;;;;;;4990843;28;20443;-80
2023/12/12 09:57:49;;;;;;;22.52;11.43;;;6.10;99.90;;;;;;4980111;28;20050;-84
2023/12/12 10:00:37;;;;;;;19.83;12.57;;;6.10;99.90;;;;;;4991342;28;20057;-85
2023/12/12 10:03:26;;;;;;;17.55;8.82;;;6.20;99.90;;;;;;4991179;28;20048;-81
2023/12/12 10:06:15;;;;;;;17.05;7.75;;;6.30;99.90;;;;;;4978319;28;20050;-83
2023/12/12 10:09:05;;;;;;;8.23;6.55;;;6.50;99.90;;;;;;4981841;28;20462;-85
2023/12/12 10:11:53;;;;;;;17.58;8.52;;;6.60;99.90;;;;;;4992317;28;20053;-85
2023/12/12 10:14:47;;;;;;;7.95;4.95;;;6.70;99.90;;;;;;4999629;28;20051;-85
2023/12/12 10:17:43;;;;;;;9.00;5.13;;;6.80;99.90;;;;;;4996866;28;20046;-83
2023/12/12 10:20:35;;;;;;;8.38;4.72;;;6.90;99.90;;;;;;4979572;28;20042;-85
2023/12/12 10:23:23;;;;;;;8.93;5.05;;;7.00;99.90;;;;;;4994451;28;20047;-84
2023/12/12 10:26:10;;;;;;;8.77;4.88;;;7.10;99.90;;;;;;4977606;28;20612;-85
2023/12/12 10:29:00;;;;;;;5.90;3.83;;;7.20;99.90;;;;;;4991413;28;20386;-84
2023/12/12 10:31:47;;;;;;;6.57;2.92;;;7.30;99.90;;;;;;4990747;28;20047;-84
2023/12/12 10:34:34;;;;;;;3.83;3.28;;;7.50;99.90;;;;;;4976788;28;20486;-83
2023/12/12 10:37:22;;;;;;;4.90;3.45;;;7.50;99.90;;;;;;4982363;28;20208;-84
2023/12/12 10:40:15;;;;;;;5.05;4.10;;;7.50;99.90;;;;;;4993771;28;20049;-84
2023/12/12 10:43:05;;;;;;;6.88;3.70;;;7.50;99.90;;;;;;4986347;28;20054;-82
2023/12/12 10:45:53;;;;;;;6.25;4.55;;;7.50;99.90;;;;;;4990162;28;20050;-81
2023/12/12 10:48:52;;;;;;;8.98;4.57;;;7.50;99.90;;;;;;4993875;28;20097;-84
2023/12/12 10:51:44;;;;;;;7.72;4.43;;;7.60;99.90;;;;;;4993239;28;20104;-84
2023/12/12 10:54:36;;;;;;;9.32;4.55;;;7.60;99.90;;;;;;4986475;28;20057;-82
2023/12/12 10:57:24;;;;;;;4.50;3.57;;;7.70;99.90;;;;;;4986204;28;20046;-80
2023/12/12 11:00:14;;;;;;;3.85;3.33;;;7.70;99.90;;;;;;4988256;28;20046;-83
2023/12/12 11:03:06;;;;;;;6.50;3.65;;;7.80;99.90;;;;;;4995735;28;20126;-84
2023/12/12 11:05:54;;;;;;;6.35;3.08;;;7.90;99.90;;;;;;4988831;28;20143;-84
2023/12/12 11:08:46;;;;;;;4.22;2.47;;;7.90;99.90;;;;;;4989904;28;20054;-84
2023/12/12 11:11:40;;;;;;;3.42;2.35;;;8.00;99.90;;;;;;4992598;28;20061;-83
2023/12/12 11:14:27;;;;;;;6.22;2.25;;;8.10;99.90;;;;;;4988191;28;20046;-84
2023/12/12 11:17:18;;;;;;;2.17;1.98;;;8.20;99.90;;;;;;4986681;28;20050;-84
2023/12/12 11:20:13;;;;;;;2.67;2.13;;;8.30;99.90;;;;;;4989211;28;20057;-85
2023/12/12 11:23:03;;;;;;;4.38;2.97;;;8.40;99.90;;;;;;4982424;28;20057;-84
2023/12/12 11:25:51;;;;;;;3.60;3.22;;;8.50;99.90;;;;;;4990949;28;20049;-85
2023/12/12 11:28:38;;;;;;;3.95;2.88;;;8.60;99.90;;;;;;4980272;28;20147;-84
2023/12/12 11:31:27;;;;;;;8.60;4.38;;;8.60;99.90;;;;;;4995033;28;20053;-85
2023/12/12 11:34:15;;;;;;;3.75;2.50;;;8.60;99.90;;;;;;4990553;28;20105;-85
2023/12/12 11:37:03;;;;;;;5.68;2.55;;;8.70;99.90;;;;;;4991727;28;20387;-83
2023/12/12 11:39:51;;;;;;;2.95;2.65;;;8.70;99.90;;;;;;4985726;28;20047;-85
2023/12/12 11:42:41;;;;;;;4.90;2.70;;;8.70;99.90;;;;;;4986459;28;20052;-82
2023/12/12 11:45:29;;;;;;;4.45;2.55;;;8.70;99.90;;;;;;4990177;28;20094;-80
2023/12/12 11:48:18;;;;;;;3.08;2.40;;;8.60;99.90;;;;;;4980498;28;20474;-86
2023/12/12 11:51:34;;;;;;;3.65;2.97;;;8.70;99.90;;;;;;4989442;28;20375;-86
2023/12/12 11:54:26;;;;;;;6.30;3.08;;;8.70;99.90;;;;;;4992724;28;20050;-85
2023/12/12 11:57:13;;;;;;;3.60;2.50;;;8.70;99.90;;;;;;4984738;28;20057;-86
2023/12/12 12:00:06;;;;;;;3.53;2.85;;;8.70;99.90;;;;;;4993815;28;20499;-86
2023/12/12 12:02:56;;;;;;;3.15;2.25;;;8.60;99.90;;;;;;4992231;28;20056;-86
2023/12/12 12:05:47;;;;;;;3.30;2.45;;;8.60;99.90;;;;;;4988158;28;20058;-83
2023/12/12 12:08:35;;;;;;;2.85;1.90;;;8.60;99.90;;;;;;4985753;28;20043;-83
2023/12/12 12:11:22;;;;;;;3.40;2.22;;;8.60;99.90;;;;;;4980218;28;20050;-86
2023/12/12 12:14:12;;;;;;;2.65;1.67;;;8.60;99.90;;;;;;4998135;28;20085;-85
2023/12/12 12:17:01;;;;;;;2.92;2.00;;;8.60;99.90;;;;;;5007625;28;20073;-85
2023/12/12 12:19:57;;;;;;;4.72;1.80;;;8.60;99.90;;;;;;5009967;28;20046;-85
2023/12/12 12:22:49;;;;;;;2.15;1.38;;;8.60;99.90;;;;;;4997023;28;20470;-84
2023/12/12 12:25:37;;;;;;;3.10;1.50;;;8.70;99.90;;;;;;4997022;28;20058;-84
2023/12/12 12:29:21;;;;;;;3.08;1.75;;;8.70;99.90;;;;;;5009978;23;20054;-85
2023/12/12 12:36:49;;;;;;;5.50;2.97;;;8.70;99.90;;;;;;4917884;29;20028;-85
2023/12/12 12:44:31;;;;;;;4.70;2.35;;;8.70;99.90;;;;;;4901616;29;21617;-84
2023/12/12 12:51:51;;;;;;;2.90;1.90;;;8.70;99.90;;;;;;4857631;29;20069;-82
2023/12/12 12:54:41;;;;;;;3.17;1.70;;;8.80;99.90;;;;;;4859022;29;20475;-82
2023/12/12 13:06:36;;;;;;;3.42;1.92;;;8.90;99.90;;;;;;4748499;30;20378;-85
2023/12/12 13:22:31;;;;;;;1.85;1.27;;;9.40;99.90;;;;;;4766993;29;20040;-81
2023/12/12 13:30:10;;;;;;;1.85;1.48;;;9.40;99.90;;;;;;4907809;29;20466;-85
2023/12/12 13:33:15;;;;;;;4.22;2.10;;;9.50;99.90;;;;;;4911552;29;20048;-86
2023/12/12 13:36:34;;;;;;;3.97;2.90;;;9.40;99.90;;;;;;4837620;29;20050;-87
2023/12/12 13:40:15;;;;;;;3.63;2.45;;;9.10;99.90;;;;;;4856529;29;20125;-84
2023/12/12 13:57:06;;;;;;;2.45;1.00;;;8.50;99.90;;;;;;4921860;29;20147;-87
2023/12/12 13:59:48;;;;;;;6.25;3.13;;;8.60;99.90;;;;;;4920836;29;20047;-84
2023/12/12 14:02:38;;;;;;;5.55;2.13;;;8.50;99.90;;;;;;4924108;29;20048;-88
2023/12/12 14:05:46;;;;;;;20.40;7.80;;;8.60;99.90;;;;;;4893613;29;20153;-88
2023/12/12 14:08:34;;;;;;;4.68;2.85;;;8.60;99.90;;;;;;4914423;28;20136;-88
2023/12/12 14:11:36;;;;;;;;;;;;;;;;;;;;;
2023/12/12 14:14:27;;;;;;;7.03;3.55;;;8.50;99.90;;;;;;5008047;28;20050;-87
2023/12/12 14:17:29;;;;;;;6.28;3.03;;;8.50;99.90;;;;;;5007837;28;20492;-86
2023/12/12 14:20:20;;;;;;;3.60;3.03;;;8.40;99.90;;;;;;5007585;28;20143;-87
2023/12/12 14:23:23;;;;;;;5.10;3.10;;;8.40;99.90;;;;;;5008918;28;20042;-87
2023/12/12 14:26:17;;;;;;;4.78;3.03;;;8.30;99.90;;;;;;4995299;28;20556;-85
2023/12/12 14:29:44;;;;;;;2.88;2.30;;;8.30;99.90;;;;;;5005545;28;20049;-86
2023/12/12 14:32:33;;;;;;;2.10;1.90;;;8.30;99.90;;;;;;5009060;28;20061;-86
2023/12/12 14:35:28;;;;;;;4.43;2.20;;;8.20;99.90;;;;;;4999523;28;20041;-86
2023/12/12 14:38:17;;;;;;;4.95;3.20;;;8.20;99.90;;;;;;5000791;28;20046;-84
2023/12/12 14:41:05;;;;;;;5.20;2.55;;;8.20;99.90;;;;;;5014982;28;20050;-84
2023/12/12 14:44:00;;;;;;;2.60;2.08;;;8.10;99.90;;;;;;5014934;28;20049;-86
2023/12/12 14:46:50;;;;;;;3.78;2.10;;;8.10;99.90;;;;;;5014239;28;20057;-87
2023/12/12 14:49:41;;;;;;;3.05;2.38;;;8.10;99.90;;;;;;4996087;28;20052;-88
2023/12/12 14:52:30;;;;;;;3.38;2.13;;;8.10;99.90;;;;;;5012387;28;20065;-88
2023/12/12 14:55:21;;;;;;;5.28;2.13;;;8.00;99.90;;;;;;4997683;28;20050;-87
2023/12/12 14:58:12;;;;;;;2.28;1.50;;;8.00;99.90;;;;;;5013399;28;20088;-87
2023/12/12 15:01:00;;;;;;;1.63;1.38;;;8.00;99.90;;;;;;5013307;28;20057;-88
2023/12/12 15:03:50;;;;;;;1.52;1.42;;;7.90;99.90;;;;;;5013891;28;20048;-81
2023/12/12 15:06:39;;;;;;;1.30;1.20;;;7.90;99.90;;;;;;5019963;28;20111;-85
2023/12/12 15:09:28;;;;;;;2.83;1.50;;;7.90;99.90;;;;;;5018923;28;20049;-86
2023/12/12 15:12:15;;;;;;;3.08;1.55;;;7.90;99.90;;;;;;5016073;28;20045;-85
2023/12/12 15:15:05;;;;;;;2.60;2.03;;;8.00;99.90;;;;;;5017706;28;20478;-84
2023/12/12 15:17:53;;;;;;;4.15;3.50;;;8.00;99.90;;;;;;5017547;28;20125;-88
2023/12/12 15:20:41;;;;;;;2.53;1.90;;;8.00;99.90;;;;;;5015630;28;20061;-86
2023/12/12 15:23:28;;;;;;;2.20;1.02;;;8.00;99.90;;;;;;4993696;28;20434;-86
2023/12/12 15:26:19;;;;;;;1.20;1.10;;;8.10;99.90;;;;;;5011701;28;20466;-87
2023/12/12 15:29:08;;;;;;;1.38;1.17;;;8.10;99.90;;;;;;5010124;28;20047;-86
2023/12/12 15:31:55;;;;;;;1.45;1.20;;;8.10;99.90;;;;;;5009860;28;20056;-87
2023/12/12 15:43:05;;;;;;;4.70;2.17;;;8.30;99.90;;;;;;5011076;28;20037;-85
2023/12/12 15:45:53;;;;;;;3.45;2.28;;;8.40;99.90;;;;;;5022714;28;20053;-87
2023/12/12 15:48:42;;;;;;;3.83;2.40;;;8.40;99.90;;;;;;5010278;28;20093;-83
2023/12/12 15:51:33;;;;;;;4.72;2.50;;;8.40;99.90;;;;;;5010452;28;20153;-87
2023/12/12 15:54:20;;;;;;;2.80;2.60;;;8.40;99.90;;;;;;5019967;28;20069;-88
2023/12/12 15:57:08;;;;;;;3.08;2.65;;;8.40;99.90;;;;;;5012134;28;20042;-85
2023/12/12 15:59:59;;;;;;;3.95;2.78;;;8.40;99.90;;;;;;5014170;28;20517;-87